Terminal Aerodrome Forecast
Issued by NWS

Home | Current Version | Previous Version | Graphics & Text | Print | Product List | Glossary On
Versions: 1 2 3 4 5 6 7 8 9 10 11 12 13 14 15 16 17 18 19 20 21 22
001
FTUS43 KABR 221120
TAFMBG
TAF
KMBG 221120Z 2212/2312 13006KT P6SM SKC
     FM221500 22008KT P6SM FEW250
     FM230300 17008KT P6SM FEW200
     FM230800 15008KT P6SM FEW200 WS020/22030KT
     FM231000 15008KT P6SM FEW200 WS015/23020KT
     FM231100 14008KT P6SM FEW200 WS007/23010KT=

USA.gov is the U.S. government's official web portal to all federal, state and local government web resources and services.